createdAt,value
2019-02-19T00:01:51.634Z,4.90
2019-02-19T00:04:21.816Z,4.25
2019-02-19T00:06:51.977Z,4.35
2019-02-19T00:09:22.094Z,3.90
2019-02-19T00:11:52.240Z,3.62
2019-02-19T00:14:22.440Z,4.12
2019-02-19T00:16:52.648Z,3.80
2019-02-19T00:19:22.835Z,3.08
2019-02-19T00:21:53.018Z,3.50
2019-02-19T00:24:23.180Z,3.58
2019-02-19T00:26:53.386Z,2.65
2019-02-19T00:29:23.786Z,4.50
2019-02-19T00:31:54.369Z,3.87
2019-02-19T00:34:24.965Z,3.40
2019-02-19T00:36:55.091Z,3.58
2019-02-19T00:39:25.350Z,3.30
2019-02-19T00:41:55.560Z,2.50
2019-02-19T00:44:25.757Z,2.85
2019-02-19T00:46:56.195Z,2.25
2019-02-19T00:49:28.981Z,2.87
2019-02-19T00:51:59.250Z,2.62
2019-02-19T00:54:29.426Z,2.22
2019-02-19T00:56:59.577Z,2.22
2019-02-19T00:59:29.738Z,1.67
2019-02-19T01:01:59.909Z,1.72
2019-02-19T01:04:30.040Z,1.90
2019-02-19T01:07:00.162Z,1.98
2019-02-19T01:09:30.455Z,2.10
2019-02-19T01:12:01.629Z,1.80
2019-02-19T01:14:32.874Z,1.87
2019-02-19T01:17:03.025Z,2.05
2019-02-19T01:19:33.209Z,2.08
2019-02-19T01:22:03.415Z,2.58
2019-02-19T01:24:33.607Z,1.82
2019-02-19T01:27:03.806Z,1.57
2019-02-19T01:29:33.973Z,1.07
2019-02-19T01:32:04.148Z,1.22
2019-02-19T01:34:34.318Z,1.00
2019-02-19T01:37:04.564Z,1.42
2019-02-19T01:39:34.779Z,2.52
2019-02-19T01:42:04.982Z,1.10
2019-02-19T01:44:35.118Z,1.90
2019-02-19T01:47:05.327Z,1.12
2019-02-19T01:49:35.487Z,1.12
2019-02-19T01:52:05.652Z,1.10
2019-02-19T01:54:35.872Z,1.52
2019-02-19T01:57:06.054Z,2.12
2019-02-19T01:59:36.213Z,1.42
2019-02-19T02:02:06.363Z,1.35
2019-02-19T02:04:36.510Z,1.15
2019-02-19T02:07:06.707Z,1.95
2019-02-19T02:09:36.950Z,1.62
2019-02-19T02:12:07.108Z,1.57
2019-02-19T02:14:38.183Z,1.32
2019-02-19T02:17:08.308Z,1.77
2019-02-19T02:19:38.423Z,1.27
2019-02-19T02:22:08.550Z,1.00
2019-02-19T02:24:38.848Z,1.90
2019-02-19T02:27:09.001Z,1.87
2019-02-19T02:29:39.169Z,1.57
2019-02-19T02:32:09.356Z,2.20
2019-02-19T02:34:39.563Z,2.08
2019-02-19T02:37:09.784Z,1.92
2019-02-19T02:39:43.280Z,2.27
2019-02-19T02:42:13.498Z,1.75
2019-02-19T02:44:43.678Z,2.40
2019-02-19T02:47:13.834Z,2.50
2019-02-19T02:49:44.004Z,2.22
2019-02-19T02:52:14.174Z,2.65
2019-02-19T02:54:44.394Z,2.35
2019-02-19T02:57:14.594Z,2.37
2019-02-19T02:59:44.718Z,2.05
2019-02-19T03:02:17.849Z,2.40
2019-02-19T03:04:46.822Z,2.08
2019-02-19T03:07:28.006Z,2.58
2019-02-19T03:09:58.178Z,3.15
2019-02-19T03:12:28.619Z,3.42
2019-02-19T03:14:58.775Z,2.70
2019-02-19T03:17:28.874Z,4.03
2019-02-19T03:19:59.129Z,3.27
2019-02-19T03:22:29.330Z,2.85
2019-02-19T03:24:59.572Z,2.77
2019-02-19T03:27:30.470Z,2.95
2019-02-19T03:30:00.609Z,3.67
2019-02-19T03:32:30.749Z,3.05
2019-02-19T03:35:01.162Z,3.30
2019-02-19T03:37:31.260Z,4.08
2019-02-19T03:40:01.419Z,4.05
2019-02-19T03:42:32.580Z,4.33
2019-02-19T03:45:02.862Z,5.00
2019-02-19T03:47:33.089Z,4.33
2019-02-19T03:50:03.288Z,5.15
2019-02-19T03:52:33.458Z,3.95
2019-02-19T03:55:11.669Z,4.55
2019-02-19T03:57:44.263Z,5.83
2019-02-19T04:00:14.525Z,5.30
2019-02-19T04:02:44.777Z,6.15
2019-02-19T04:05:16.328Z,7.05
2019-02-19T04:07:46.498Z,6.50
2019-02-19T04:10:17.362Z,6.50
2019-02-19T04:12:47.514Z,6.22
2019-02-19T04:15:17.775Z,6.55
2019-02-19T04:17:48.062Z,7.47
2019-02-19T04:20:19.427Z,6.65
2019-02-19T04:22:51.371Z,8.70
2019-02-19T04:25:24.809Z,9.93
2019-02-19T04:27:57.981Z,8.80
2019-02-19T04:30:28.141Z,8.88
2019-02-19T04:33:01.476Z,8.98
2019-02-19T04:35:31.615Z,8.73
2019-02-19T04:38:01.880Z,10.18
2019-02-19T04:40:32.061Z,12.43
2019-02-19T04:43:02.891Z,11.68
2019-02-19T04:45:34.589Z,11.97
2019-02-19T04:48:10.053Z,12.37
2019-02-19T04:50:45.763Z,13.43
2019-02-19T04:53:19.197Z,13.65
2019-02-19T04:55:53.986Z,14.30
2019-02-19T04:58:26.564Z,15.15
2019-02-19T05:00:57.224Z,16.40
2019-02-19T05:03:27.421Z,17.62
2019-02-19T05:05:57.560Z,17.90
2019-02-19T05:08:27.772Z,20.12
2019-02-19T05:11:01.850Z,21.95
2019-02-19T05:13:38.781Z,21.25
2019-02-19T05:16:08.970Z,21.27
2019-02-19T05:18:39.119Z,19.77
2019-02-19T05:21:10.131Z,20.95
2019-02-19T05:23:45.193Z,21.05
2019-02-19T05:26:19.738Z,21.70
2019-02-19T05:28:54.758Z,19.95
2019-02-19T05:31:27.441Z,20.88
2019-02-19T05:33:58.077Z,20.35
2019-02-19T05:36:28.258Z,19.92
2019-02-19T05:39:00.741Z,20.27
2019-02-19T05:41:34.581Z,19.73
2019-02-19T05:44:06.419Z,20.90
2019-02-19T05:46:36.640Z,18.12
2019-02-19T05:49:06.797Z,21.10
2019-02-19T05:51:37.188Z,20.25
2019-02-19T05:54:07.343Z,19.67
2019-02-19T05:56:37.766Z,20.10
2019-02-19T05:59:09.237Z,20.08
2019-02-19T06:01:39.543Z,20.25
2019-02-19T06:04:13.497Z,20.65
2019-02-19T06:06:45.305Z,19.40
2019-02-19T06:09:15.504Z,17.95
2019-02-19T06:11:47.125Z,18.62
2019-02-19T06:14:21.495Z,20.15
2019-02-19T06:16:58.288Z,18.20
2019-02-19T06:19:24.509Z,20.15
2019-02-19T06:21:59.048Z,18.45
2019-02-19T06:24:29.201Z,18.85
2019-02-19T06:26:59.446Z,19.02
2019-02-19T06:29:30.946Z,18.50
2019-02-19T06:32:02.768Z,18.50
2019-02-19T06:34:33.442Z,18.12
2019-02-19T06:37:03.728Z,17.98
2019-02-19T06:39:33.848Z,18.27
2019-02-19T06:42:04.001Z,18.32
2019-02-19T06:44:34.120Z,17.85
2019-02-19T06:47:06.948Z,18.15
2019-02-19T06:49:36.594Z,17.20
2019-02-19T06:52:06.831Z,16.35
2019-02-19T06:54:37.166Z,17.00
2019-02-19T06:57:10.169Z,17.02
2019-02-19T06:59:40.412Z,15.68
2019-02-19T07:02:19.106Z,16.32
2019-02-19T07:04:52.948Z,16.15
2019-02-19T07:07:23.135Z,15.68
2019-02-19T07:09:53.370Z,16.40
2019-02-19T07:12:23.544Z,16.10
2019-02-19T07:14:53.728Z,15.83
2019-02-19T07:17:23.840Z,17.37
2019-02-19T07:19:54.006Z,14.90
2019-02-19T07:22:24.118Z,16.60
2019-02-19T07:24:54.553Z,16.62
2019-02-19T07:27:24.698Z,16.12
2019-02-19T07:29:54.921Z,14.70
2019-02-19T07:32:25.061Z,15.50
2019-02-19T07:34:55.316Z,15.13
2019-02-19T07:37:25.453Z,14.85
2019-02-19T07:39:55.622Z,12.30
2019-02-19T07:42:25.752Z,13.30
2019-02-19T07:44:58.124Z,11.93
2019-02-19T07:47:28.305Z,11.03
2019-02-19T07:49:58.693Z,12.33
2019-02-19T07:52:28.827Z,12.18
2019-02-19T07:54:59.429Z,12.70
2019-02-19T07:57:29.585Z,10.18
2019-02-19T08:00:00.509Z,8.73
2019-02-19T08:02:30.650Z,10.98
2019-02-19T08:05:00.985Z,10.48
2019-02-19T08:07:31.108Z,9.73
2019-02-19T08:10:01.274Z,9.73
2019-02-19T08:12:32.629Z,9.80
2019-02-19T08:15:02.781Z,8.80
2019-02-19T08:17:33.659Z,8.48
2019-02-19T08:20:03.993Z,9.63
2019-02-19T08:22:34.175Z,8.43
2019-02-19T08:25:04.267Z,8.35
2019-02-19T08:27:34.419Z,8.78
2019-02-19T08:30:05.081Z,8.38
2019-02-19T08:32:35.385Z,7.67
2019-02-19T08:35:05.632Z,9.60
2019-02-19T08:37:35.794Z,9.78
2019-02-19T08:40:06.185Z,9.93
2019-02-19T08:42:36.343Z,8.10
2019-02-19T08:45:06.607Z,8.23
2019-02-19T08:47:42.527Z,8.48
2019-02-19T08:50:10.807Z,7.92
2019-02-19T08:52:40.937Z,9.15
2019-02-19T08:55:11.142Z,8.65
2019-02-19T08:57:41.330Z,10.28
2019-02-19T09:00:11.675Z,9.50
2019-02-19T09:02:41.922Z,9.28
2019-02-19T09:05:12.079Z,10.63
2019-02-19T09:07:42.216Z,9.50
2019-02-19T09:10:12.472Z,9.53
2019-02-19T09:12:42.640Z,10.00
2019-02-19T09:15:12.800Z,9.88
2019-02-19T09:17:51.273Z,9.70
2019-02-19T09:20:14.814Z,10.30
2019-02-19T09:22:44.930Z,9.45
2019-02-19T09:25:15.148Z,10.55
2019-02-19T09:27:45.295Z,9.93
2019-02-19T09:30:15.410Z,9.95
2019-02-19T09:32:45.542Z,10.20
2019-02-19T09:35:15.781Z,9.45
2019-02-19T09:37:45.948Z,8.85
2019-02-19T09:40:16.129Z,10.55
2019-02-19T09:42:46.276Z,8.78
2019-02-19T09:45:16.559Z,8.33
2019-02-19T09:47:49.753Z,8.18
2019-02-19T09:50:19.901Z,9.85
2019-02-19T09:52:50.063Z,9.60
2019-02-19T09:55:20.280Z,8.50
2019-02-19T09:57:50.371Z,9.13
2019-02-19T10:00:20.509Z,7.92
2019-02-19T10:02:50.712Z,8.45
2019-02-19T10:05:20.863Z,16.57
2019-02-19T10:07:50.952Z,6.60
2019-02-19T10:10:21.211Z,8.15
2019-02-19T10:12:51.328Z,7.20
2019-02-19T10:15:21.509Z,8.10
2019-02-19T10:17:51.630Z,8.15
2019-02-19T10:20:21.789Z,6.30
2019-02-19T10:22:51.982Z,8.25
2019-02-19T10:25:22.118Z,6.95
2019-02-19T10:27:52.460Z,7.78
2019-02-19T10:30:23.120Z,8.05
2019-02-19T10:32:53.244Z,7.45
2019-02-19T10:35:23.409Z,6.70
2019-02-19T10:37:53.548Z,6.80
2019-02-19T10:40:23.715Z,7.20
2019-02-19T10:42:53.828Z,7.85
2019-02-19T10:45:24.096Z,7.10
2019-02-19T10:47:54.296Z,8.00
2019-02-19T10:50:24.443Z,6.87
2019-02-19T10:52:54.656Z,7.20
2019-02-19T10:55:24.830Z,6.60
2019-02-19T10:57:55.537Z,5.60
2019-02-19T11:00:25.648Z,4.37
2019-02-19T11:02:55.778Z,5.33
2019-02-19T11:05:26.000Z,4.97
2019-02-19T11:07:56.152Z,5.58
2019-02-19T11:10:26.260Z,6.72
2019-02-19T11:12:56.443Z,6.85
2019-02-19T11:15:26.536Z,5.55
2019-02-19T11:17:56.828Z,5.62
2019-02-19T11:20:28.902Z,5.60
2019-02-19T11:22:59.202Z,5.45
2019-02-19T11:25:29.334Z,4.22
2019-02-19T11:27:59.446Z,6.37
2019-02-19T11:30:29.550Z,5.55
2019-02-19T11:33:02.951Z,6.33
2019-02-19T11:35:33.080Z,5.25
2019-02-19T11:38:03.252Z,4.72
2019-02-19T11:40:33.393Z,3.55
2019-02-19T11:43:03.501Z,4.50
2019-02-19T11:45:33.704Z,4.70
2019-02-19T11:48:03.870Z,5.42
2019-02-19T11:50:34.247Z,3.50
2019-02-19T11:53:05.516Z,3.52
2019-02-19T11:55:35.664Z,1.72
2019-02-19T11:58:05.857Z,3.50
2019-02-19T12:00:38.441Z,1.45
2019-02-19T12:03:08.761Z,1.67
2019-02-19T12:05:39.031Z,1.72
2019-02-19T12:08:09.185Z,1.47
2019-02-19T12:10:39.387Z,1.40
2019-02-19T12:13:09.553Z,2.27
2019-02-19T12:15:39.775Z,0.75
2019-02-19T12:18:09.930Z,0.55
2019-02-19T12:20:40.254Z,0.93
2019-02-19T12:23:10.466Z,0.95
2019-02-19T12:25:40.609Z,0.82
2019-02-19T12:28:10.770Z,0.65
2019-02-19T12:30:41.009Z,1.15
2019-02-19T12:33:11.141Z,1.20
2019-02-19T12:35:42.946Z,0.82
2019-02-19T12:38:13.082Z,0.62
2019-02-19T12:40:43.259Z,1.05
2019-02-19T12:43:15.500Z,0.80
2019-02-19T12:45:45.665Z,0.57
2019-02-19T12:48:16.079Z,0.98
2019-02-19T12:50:46.261Z,0.68
2019-02-19T12:53:16.425Z,0.75
2019-02-19T12:55:46.583Z,0.42
2019-02-19T12:58:16.752Z,0.23
2019-02-19T13:00:46.970Z,0.45
2019-02-19T13:03:17.227Z,0.40
2019-02-19T13:05:47.409Z,0.28
2019-02-19T13:08:17.617Z,0.42
2019-02-19T13:10:47.776Z,0.20
2019-02-19T13:13:17.937Z,0.20
2019-02-19T13:15:48.148Z,0.37
2019-02-19T13:18:18.857Z,0.20
2019-02-19T13:20:49.215Z,0.30
2019-02-19T13:23:20.132Z,0.20
2019-02-19T13:25:50.964Z,0.90
2019-02-19T13:28:21.084Z,0.35
2019-02-19T13:30:51.244Z,0.20
2019-02-19T13:33:21.396Z,0.33
2019-02-19T13:35:51.557Z,0.13
2019-02-19T13:38:21.717Z,0.20
2019-02-19T13:40:51.844Z,0.20
2019-02-19T13:43:22.016Z,0.53
2019-02-19T13:45:52.259Z,0.15
2019-02-19T13:48:22.450Z,0.20
2019-02-19T13:50:52.577Z,0.10
2019-02-19T13:53:27.941Z,0.10
2019-02-19T13:55:59.098Z,0.10
2019-02-19T13:58:29.688Z,0.10
2019-02-19T14:01:00.145Z,0.13
2019-02-19T14:03:30.374Z,0.10
2019-02-19T14:06:00.499Z,0.10
2019-02-19T14:08:30.638Z,0.10
2019-02-19T14:11:01.752Z,0.10
2019-02-19T14:13:32.086Z,0.10
2019-02-19T14:16:15.695Z,0.10
2019-02-19T14:18:53.686Z,0.10
2019-02-19T14:21:42.828Z,0.10
2019-02-19T14:24:34.733Z,0.10
2019-02-19T14:27:42.335Z,0.10
2019-02-19T14:30:34.512Z,0.10
2019-02-19T14:33:27.316Z,0.10
2019-02-19T14:36:14.992Z,0.10
2019-02-19T14:39:19.610Z,0.45
2019-02-19T14:42:23.849Z,0.10
2019-02-19T14:45:09.486Z,0.10
2019-02-19T14:47:57.499Z,0.10
2019-02-19T14:50:46.654Z,0.10
2019-02-19T14:53:45.248Z,0.10
2019-02-19T14:56:35.118Z,0.20
2019-02-19T14:59:42.514Z,0.10
2019-02-19T15:02:30.341Z,0.85
2019-02-19T15:05:12.621Z,0.20
2019-02-19T15:08:00.359Z,0.20
2019-02-19T15:10:52.266Z,0.10
2019-02-19T15:13:41.309Z,0.20
2019-02-19T15:16:25.239Z,0.20
2019-02-19T15:19:07.072Z,0.20
2019-02-19T15:22:11.881Z,0.50
2019-02-19T15:24:59.891Z,0.20
2019-02-19T15:27:42.514Z,0.20
2019-02-19T15:30:34.415Z,0.20
2019-02-19T15:33:22.629Z,1.05
2019-02-19T15:36:06.273Z,0.40
2019-02-19T15:39:01.467Z,0.50
2019-02-19T15:41:53.457Z,0.20
2019-02-19T15:44:31.810Z,0.40
2019-02-19T15:47:23.803Z,0.20
2019-02-19T15:50:10.249Z,0.20
2019-02-19T15:53:02.445Z,0.20
2019-02-19T15:55:53.455Z,0.35
2019-02-19T15:58:37.082Z,0.50
2019-02-19T16:01:41.464Z,0.40
2019-02-19T16:04:30.628Z,0.40
2019-02-19T16:07:37.945Z,0.20
2019-02-19T16:10:19.331Z,0.20
2019-02-19T16:13:17.483Z,0.20
2019-02-19T16:16:05.614Z,0.20
2019-02-19T16:18:52.383Z,1.17
2019-02-19T16:21:44.517Z,0.25
2019-02-19T16:24:29.135Z,0.33
2019-02-19T16:27:15.191Z,1.37
2019-02-19T16:30:17.878Z,0.20
2019-02-19T16:33:16.175Z,0.20
2019-02-19T16:35:54.980Z,0.20
2019-02-19T16:38:53.057Z,0.62
2019-02-19T16:41:37.084Z,0.60
2019-02-19T16:44:32.156Z,0.75
2019-02-19T16:47:30.850Z,0.78
2019-02-19T16:50:08.806Z,1.05
2019-02-19T16:52:48.175Z,1.40
2019-02-19T16:55:36.501Z,1.98
2019-02-19T16:58:31.425Z,2.60
2019-02-19T17:01:38.764Z,1.35
2019-02-19T17:04:22.063Z,2.22
2019-02-19T17:07:02.755Z,2.25
2019-02-19T17:09:43.132Z,1.77
2019-02-19T17:12:44.441Z,1.37
2019-02-19T17:15:36.687Z,1.65
2019-02-19T17:18:27.575Z,1.32
2019-02-19T17:21:23.418Z,2.10
2019-02-19T17:24:12.346Z,2.60
2019-02-19T17:27:09.038Z,1.75
2019-02-19T17:29:57.640Z,0.20
2019-02-19T17:32:50.525Z,0.30
2019-02-19T17:35:37.708Z,0.10
2019-02-19T17:38:33.112Z,0.20
2019-02-19T17:41:09.417Z,0.10
2019-02-19T17:43:59.886Z,0.10
2019-02-19T17:46:43.816Z,0.10
2019-02-19T17:49:39.218Z,0.10
2019-02-19T17:52:34.650Z,0.10
2019-02-19T17:55:27.232Z,0.10
2019-02-19T17:58:19.536Z,0.40
2019-02-19T18:00:59.876Z,0.10
2019-02-19T18:03:55.049Z,0.10
2019-02-19T18:06:43.475Z,0.10
2019-02-19T18:09:29.945Z,0.03
2019-02-19T18:12:05.508Z,0.00
2019-02-19T18:15:06.509Z,0.03
2019-02-19T18:17:55.238Z,0.00
2019-02-19T18:20:25.796Z,0.10
2019-02-19T18:22:55.988Z,0.08
2019-02-19T18:25:31.406Z,0.10
2019-02-19T18:28:01.552Z,0.10
2019-02-19T18:30:32.367Z,0.10
2019-02-19T18:33:02.964Z,0.10
2019-02-19T18:35:35.967Z,0.78
2019-02-19T18:38:06.559Z,0.10
2019-02-19T18:40:36.670Z,0.20
2019-02-19T18:43:06.839Z,0.10
2019-02-19T18:45:38.132Z,0.10
2019-02-19T18:48:10.768Z,0.10
2019-02-19T18:50:40.966Z,0.10
2019-02-19T18:53:11.168Z,0.15
2019-02-19T18:55:41.319Z,0.10
2019-02-19T18:58:11.935Z,0.10
2019-02-19T19:00:42.495Z,0.13
2019-02-19T19:03:13.869Z,0.10
2019-02-19T19:05:46.850Z,0.25
2019-02-19T19:08:18.920Z,0.17
2019-02-19T19:10:49.987Z,0.10
2019-02-19T19:13:20.163Z,0.20
2019-02-19T19:15:50.503Z,0.10
2019-02-19T19:18:23.707Z,0.30
2019-02-19T19:20:57.445Z,0.10
2019-02-19T19:23:28.207Z,0.20
2019-02-19T19:25:58.755Z,0.13
2019-02-19T19:28:28.943Z,0.10
2019-02-19T19:31:01.057Z,0.10
2019-02-19T19:33:31.213Z,0.10
2019-02-19T19:36:03.230Z,0.10
2019-02-19T19:38:34.015Z,0.10
2019-02-19T19:41:04.428Z,0.10
2019-02-19T19:43:34.740Z,0.10
2019-02-19T19:46:06.769Z,0.10
2019-02-19T19:48:43.305Z,0.10
2019-02-19T19:51:24.279Z,0.30
2019-02-19T19:53:54.093Z,0.35
2019-02-19T19:56:24.321Z,0.20
2019-02-19T19:58:54.540Z,0.20
2019-02-19T20:01:24.990Z,0.10
2019-02-19T20:03:55.165Z,0.17
2019-02-19T20:06:27.933Z,0.33
2019-02-19T20:08:58.388Z,0.37
2019-02-19T20:11:28.627Z,0.20
2019-02-19T20:14:04.437Z,0.20
2019-02-19T20:16:37.493Z,0.20
2019-02-19T20:19:09.607Z,0.20
2019-02-19T20:21:42.108Z,0.30
2019-02-19T20:24:12.388Z,0.50
2019-02-19T20:26:42.815Z,0.40
2019-02-19T20:29:13.642Z,0.62
2019-02-19T20:31:43.948Z,0.78
2019-02-19T20:34:14.241Z,0.80
2019-02-19T20:36:44.618Z,0.40
2019-02-19T20:39:14.997Z,0.82
2019-02-19T20:41:45.299Z,0.47
2019-02-19T20:44:16.608Z,0.25
2019-02-19T20:46:46.903Z,0.30
2019-02-19T20:49:17.200Z,0.50
2019-02-19T20:51:47.374Z,0.47
2019-02-19T20:54:17.648Z,0.90
2019-02-19T20:56:47.812Z,0.88
2019-02-19T20:59:18.109Z,0.88
2019-02-19T21:01:48.284Z,0.70
2019-02-19T21:04:21.586Z,0.50
2019-02-19T21:06:51.780Z,1.17
2019-02-19T21:09:22.080Z,0.70
2019-02-19T21:11:52.449Z,0.50
2019-02-19T21:14:22.909Z,1.22
2019-02-19T21:16:53.239Z,0.88
2019-02-19T21:19:23.448Z,1.25
2019-02-19T21:21:56.026Z,0.93
2019-02-19T21:24:26.282Z,0.85
2019-02-19T21:26:59.631Z,1.05
2019-02-19T21:29:29.919Z,0.88
2019-02-19T21:32:00.225Z,0.95
2019-02-19T21:34:30.427Z,1.45
2019-02-19T21:37:00.696Z,0.70
2019-02-19T21:39:31.014Z,0.80
2019-02-19T21:42:01.257Z,1.12
2019-02-19T21:44:31.535Z,0.78
2019-02-19T21:47:01.776Z,0.98
2019-02-19T21:49:32.311Z,0.60
2019-02-19T21:52:02.612Z,1.27
2019-02-19T21:54:32.864Z,1.45
2019-02-19T21:57:03.104Z,1.20
2019-02-19T21:59:34.352Z,1.77
2019-02-19T22:02:04.574Z,1.55
2019-02-19T22:04:34.901Z,2.60
2019-02-19T22:07:07.866Z,1.00
2019-02-19T22:09:38.083Z,1.77
2019-02-19T22:12:08.240Z,0.53
2019-02-19T22:14:38.380Z,1.65
2019-02-19T22:17:08.546Z,1.00
2019-02-19T22:19:38.706Z,1.12
2019-02-19T22:22:12.986Z,1.00
2019-02-19T22:24:43.142Z,0.88
2019-02-19T22:27:13.334Z,1.00
2019-02-19T22:29:43.456Z,1.87
2019-02-19T22:32:14.904Z,1.75
2019-02-19T22:34:45.331Z,1.15
2019-02-19T22:37:15.421Z,1.07
2019-02-19T22:39:47.358Z,0.75
2019-02-19T22:42:18.666Z,0.88
2019-02-19T22:44:48.860Z,1.15
2019-02-19T22:47:19.003Z,0.65
2019-02-19T22:49:49.150Z,0.93
2019-02-19T22:52:20.418Z,0.50
2019-02-19T22:55:12.315Z,0.40
2019-02-19T22:57:42.433Z,0.37
2019-02-19T23:00:33.366Z,0.90
2019-02-19T23:03:05.631Z,0.78
2019-02-19T23:05:36.025Z,1.17
2019-02-19T23:08:06.209Z,0.28
2019-02-19T23:10:36.463Z,0.30
2019-02-19T23:13:06.685Z,0.40
2019-02-19T23:15:36.910Z,0.45
2019-02-19T23:18:07.099Z,0.20
2019-02-19T23:20:37.248Z,0.20
2019-02-19T23:23:07.492Z,0.20
2019-02-19T23:25:37.671Z,0.10
2019-02-19T23:28:07.921Z,0.10
2019-02-19T23:30:39.298Z,0.10
2019-02-19T23:33:09.514Z,0.20
2019-02-19T23:35:44.143Z,0.20
2019-02-19T23:38:15.673Z,0.15
2019-02-19T23:40:45.753Z,0.20
2019-02-19T23:43:15.913Z,0.33
2019-02-19T23:45:46.099Z,0.45
2019-02-19T23:48:16.237Z,0.35
2019-02-19T23:50:46.435Z,0.20
2019-02-19T23:53:16.700Z,0.33
2019-02-19T23:55:46.879Z,0.28
2019-02-19T23:58:17.918Z,0.30
